KYKM/YKM METAR and TAF weather

Enter ICAO airport designator
Station Type Date Time Source
KYKM METAR 2018/12/17 03:53 UTC NOAA

KYKM 170353Z 00000KT 4SM BR FEW004 SCT018 BKN120 02/01 A2986 RMK AO2 SLP122 T00170011


Station Type Date Time Source
KYKM Decoded METAR 2018/12/17 03:53 UTC NOAA

YAKIMA AIR TERMINAL, WA, United States (KYKM) 46-34N 120-32W 324M
Dec 16, 2018 - 10:53 PM EST / 2018.12.17 0353 UTC
Wind: Calm:0
Visibility: 4 mile(s):0
Sky conditions: mostly cloudy
Weather: mist
Temperature: 35.1 F (1.7 C)
Dew Point: 34.0 F (1.1 C)
Relative Humidity: 95%
Pressure (altimeter): 29.86 in. Hg (1011 hPa)
ob: KYKM 170353Z 00000KT 4SM BR FEW004 SCT018 BKN120 02/01 A2986 RMK AO2 SLP122 T00170011
cycle: 4

Station Type Date Time Source
KYKM TAF 2018/12/16 18:22 UTC NOAA

TAF KYKM 161720Z 1618/1718 27007KT P6SM -RA SCT030 OVC060
FM162100 25004KT 6SM -RA BR OVC030
FM170300 25005KT P6SM SCT030
FM170900 VRB03KT 3SM BR SKC
FM171700 19005KT 6SM BR SCT005


Example: see airport list